sensor_id;sensor_type;location;lat;lon;timestamp;pressure;altitude;pressure_sealevel;temperature;humidity
24160;BME280;62385;41.594;23.808;2023-02-21T00:00:42;95950.38;;;3.01;57.65
24160;BME280;62385;41.594;23.808;2023-02-21T00:03:26;95951.53;;;2.97;57.92
24160;BME280;62385;41.594;23.808;2023-02-21T00:06:10;95953.50;;;2.82;58.33
24160;BME280;62385;41.594;23.808;2023-02-21T00:08:55;95958.94;;;3.27;57.14
24160;BME280;62385;41.594;23.808;2023-02-21T00:11:41;95960.28;;;3.54;56.98
24160;BME280;62385;41.594;23.808;2023-02-21T00:14:26;95957.41;;;3.35;57.34
24160;BME280;62385;41.594;23.808;2023-02-21T00:17:10;95958.78;;;3.17;57.83
24160;BME280;62385;41.594;23.808;2023-02-21T00:19:54;95957.19;;;3.49;57.19
24160;BME280;62385;41.594;23.808;2023-02-21T00:22:38;95958.53;;;3.20;58.77
24160;BME280;62385;41.594;23.808;2023-02-21T00:25:23;95949.50;;;2.89;58.81
24160;BME280;62385;41.594;23.808;2023-02-21T00:28:08;95945.34;;;2.74;58.58
24160;BME280;62385;41.594;23.808;2023-02-21T00:30:52;95933.94;;;2.51;59.24
24160;BME280;62385;41.594;23.808;2023-02-21T00:33:36;95928.19;;;2.94;58.25
24160;BME280;62385;41.594;23.808;2023-02-21T00:36:20;95923.72;;;2.83;58.39
24160;BME280;62385;41.594;23.808;2023-02-21T00:39:04;95926.47;;;2.82;58.96
24160;BME280;62385;41.594;23.808;2023-02-21T00:41:48;95922.06;;;2.35;60.09
24160;BME280;62385;41.594;23.808;2023-02-21T00:44:33;95921.81;;;2.61;58.94
24160;BME280;62385;41.594;23.808;2023-02-21T00:47:16;95931.03;;;2.43;59.86
24160;BME280;62385;41.594;23.808;2023-02-21T00:50:03;95927.97;;;2.73;58.80
24160;BME280;62385;41.594;23.808;2023-02-21T00:52:47;95937.72;;;2.47;59.64
24160;BME280;62385;41.594;23.808;2023-02-21T00:55:31;95942.78;;;2.61;59.31
24160;BME280;62385;41.594;23.808;2023-02-21T00:58:15;95935.91;;;2.95;58.75
24160;BME280;62385;41.594;23.808;2023-02-21T01:00:59;95928.22;;;2.57;58.58
24160;BME280;62385;41.594;23.808;2023-02-21T01:03:43;95930.38;;;2.52;59.21
24160;BME280;62385;41.594;23.808;2023-02-21T01:06:28;95920.97;;;2.37;59.77
24160;BME280;62385;41.594;23.808;2023-02-21T01:09:12;95915.41;;;2.42;59.63
24160;BME280;62385;41.594;23.808;2023-02-21T01:11:57;95917.28;;;2.52;59.87
24160;BME280;62385;41.594;23.808;2023-02-21T01:14:41;95915.63;;;2.86;58.63
24160;BME280;62385;41.594;23.808;2023-02-21T01:17:25;95922.53;;;2.87;58.72
24160;BME280;62385;41.594;23.808;2023-02-21T01:20:09;95911.81;;;2.90;58.68
24160;BME280;62385;41.594;23.808;2023-02-21T01:22:53;95913.69;;;2.29;61.24
24160;BME280;62385;41.594;23.808;2023-02-21T01:25:40;95925.00;;;2.30;61.20
24160;BME280;62385;41.594;23.808;2023-02-21T01:28:27;95925.34;;;2.49;60.61
24160;BME280;62385;41.594;23.808;2023-02-21T01:31:17;95928.56;;;1.80;62.48
24160;BME280;62385;41.594;23.808;2023-02-21T01:34:01;95912.78;;;1.81;62.11
24160;BME280;62385;41.594;23.808;2023-02-21T01:36:46;95918.34;;;1.64;62.22
24160;BME280;62385;41.594;23.808;2023-02-21T01:39:30;95915.09;;;1.73;61.88
24160;BME280;62385;41.594;23.808;2023-02-21T01:42:15;95905.50;;;1.98;60.69
24160;BME280;62385;41.594;23.808;2023-02-21T01:48:20;95895.34;;;2.29;59.86
24160;BME280;62385;41.594;23.808;2023-02-21T01:51:07;95900.47;;;2.55;59.49
24160;BME280;62385;41.594;23.808;2023-02-21T01:53:54;95895.38;;;2.17;60.04
24160;BME280;62385;41.594;23.808;2023-02-21T01:56:39;95894.50;;;2.29;59.45
24160;BME280;62385;41.594;23.808;2023-02-21T01:59:25;95885.69;;;2.06;60.43
24160;BME280;62385;41.594;23.808;2023-02-21T02:05:32;95878.88;;;1.67;61.17
24160;BME280;62385;41.594;23.808;2023-02-21T02:08:20;95876.00;;;1.83;61.26
24160;BME280;62385;41.594;23.808;2023-02-21T02:11:31;95856.19;;;1.55;61.46
24160;BME280;62385;41.594;23.808;2023-02-21T02:46:35;95857.88;;;1.31;62.70
24160;BME280;62385;41.594;23.808;2023-02-21T02:48:34;95861.50;;;1.54;62.67
24160;BME280;62385;41.594;23.808;2023-02-21T02:51:06;95858.16;;;2.01;60.88
24160;BME280;62385;41.594;23.808;2023-02-21T02:53:33;95859.97;;;1.88;61.35
24160;BME280;62385;41.594;23.808;2023-02-21T02:56:04;95858.56;;;2.31;60.30
24160;BME280;62385;41.594;23.808;2023-02-21T02:59:00;95860.41;;;2.18;60.46
24160;BME280;62385;41.594;23.808;2023-02-21T03:15:37;95869.28;;;1.17;63.74
24160;BME280;62385;41.594;23.808;2023-02-21T03:18:16;95849.19;;;1.30;63.34
24160;BME280;62385;41.594;23.808;2023-02-21T03:20:44;95863.66;;;1.11;64.12
24160;BME280;62385;41.594;23.808;2023-02-21T03:23:13;95857.25;;;1.27;63.98
24160;BME280;62385;41.594;23.808;2023-02-21T03:25:41;95862.97;;;1.58;63.14
24160;BME280;62385;41.594;23.808;2023-02-21T03:28:09;95862.69;;;1.37;63.61
24160;BME280;62385;41.594;23.808;2023-02-21T03:30:40;95862.78;;;1.48;63.88
24160;BME280;62385;41.594;23.808;2023-02-21T03:33:07;95864.25;;;2.25;61.64
24160;BME280;62385;41.594;23.808;2023-02-21T03:35:33;95866.47;;;2.42;60.91
24160;BME280;62385;41.594;23.808;2023-02-21T03:37:58;95851.03;;;2.26;60.95
24160;BME280;62385;41.594;23.808;2023-02-21T03:40:31;95850.91;;;1.80;62.18
24160;BME280;62385;41.594;23.808;2023-02-21T03:43:00;95877.16;;;1.79;62.56
24160;BME280;62385;41.594;23.808;2023-02-21T03:45:30;95866.81;;;1.77;62.23
24160;BME280;62385;41.594;23.808;2023-02-21T03:48:16;95875.28;;;1.81;62.05
24160;BME280;62385;41.594;23.808;2023-02-21T03:50:42;95882.72;;;1.74;62.69
24160;BME280;62385;41.594;23.808;2023-02-21T03:53:09;95873.16;;;1.99;61.81
24160;BME280;62385;41.594;23.808;2023-02-21T03:55:35;95867.56;;;2.03;61.65
24160;BME280;62385;41.594;23.808;2023-02-21T03:58:05;95867.53;;;1.79;62.96
24160;BME280;62385;41.594;23.808;2023-02-21T04:00:32;95850.91;;;1.80;62.44
24160;BME280;62385;41.594;23.808;2023-02-21T04:02:58;95864.22;;;1.77;63.08
24160;BME280;62385;41.594;23.808;2023-02-21T04:05:31;95857.94;;;1.67;62.70
24160;BME280;62385;41.594;23.808;2023-02-21T04:07:57;95857.63;;;1.59;63.14
24160;BME280;62385;41.594;23.808;2023-02-21T04:10:22;95863.75;;;1.22;64.40
24160;BME280;62385;41.594;23.808;2023-02-21T04:12:49;95842.81;;;1.34;63.63
24160;BME280;62385;41.594;23.808;2023-02-21T04:15:15;95855.81;;;1.11;65.08
24160;BME280;62385;41.594;23.808;2023-02-21T04:17:40;95852.03;;;1.15;64.50
24160;BME280;62385;41.594;23.808;2023-02-21T04:20:08;95839.75;;;1.53;63.64
24160;BME280;62385;41.594;23.808;2023-02-21T04:22:37;95845.00;;;1.53;63.51
24160;BME280;62385;41.594;23.808;2023-02-21T04:25:05;95856.19;;;1.43;63.49
24160;BME280;62385;41.594;23.808;2023-02-21T04:27:37;95839.34;;;1.34;64.08
24160;BME280;62385;41.594;23.808;2023-02-21T04:30:03;95843.03;;;1.44;63.34
24160;BME280;62385;41.594;23.808;2023-02-21T04:32:28;95844.81;;;0.80;64.27
24160;BME280;62385;41.594;23.808;2023-02-21T04:34:55;95820.03;;;0.73;64.59
24160;BME280;62385;41.594;23.808;2023-02-21T04:37:20;95826.41;;;0.69;65.40
24160;BME280;62385;41.594;23.808;2023-02-21T04:39:46;95824.94;;;0.78;65.31
24160;BME280;62385;41.594;23.808;2023-02-21T04:42:14;95826.72;;;0.77;65.03
24160;BME280;62385;41.594;23.808;2023-02-21T04:44:40;95830.34;;;0.62;65.45
24160;BME280;62385;41.594;23.808;2023-02-21T04:47:05;95840.53;;;1.05;64.78
24160;BME280;62385;41.594;23.808;2023-02-21T04:49:31;95838.00;;;1.90;61.51
24160;BME280;62385;41.594;23.808;2023-02-21T04:51:57;95833.50;;;1.79;62.16
24160;BME280;62385;41.594;23.808;2023-02-21T04:54:22;95837.25;;;1.88;62.03
24160;BME280;62385;41.594;23.808;2023-02-21T04:56:48;95832.25;;;1.49;62.99
24160;BME280;62385;41.594;23.808;2023-02-21T04:59:13;95827.41;;;1.43;63.03
24160;BME280;62385;41.594;23.808;2023-02-21T05:01:39;95829.03;;;1.07;64.04
24160;BME280;62385;41.594;23.808;2023-02-21T05:04:05;95828.28;;;0.92;64.74
24160;BME280;62385;41.594;23.808;2023-02-21T05:06:31;95825.06;;;1.02;64.44
24160;BME280;62385;41.594;23.808;2023-02-21T05:08:57;95827.66;;;1.02;63.85
24160;BME280;62385;41.594;23.808;2023-02-21T05:11:23;95816.16;;;0.91;64.09
24160;BME280;62385;41.594;23.808;2023-02-21T05:13:50;95820.09;;;0.59;65.35
24160;BME280;62385;41.594;23.808;2023-02-21T05:16:17;95825.56;;;0.81;64.83
24160;BME280;62385;41.594;23.808;2023-02-21T05:18:45;95823.59;;;0.98;63.67
24160;BME280;62385;41.594;23.808;2023-02-21T05:21:11;95817.63;;;0.83;64.23
24160;BME280;62385;41.594;23.808;2023-02-21T05:23:39;95815.81;;;0.71;64.74
24160;BME280;62385;41.594;23.808;2023-02-21T05:26:06;95822.00;;;0.57;64.60
24160;BME280;62385;41.594;23.808;2023-02-21T05:28:34;95827.53;;;0.65;64.63
24160;BME280;62385;41.594;23.808;2023-02-21T05:31:00;95822.44;;;0.76;64.28
24160;BME280;62385;41.594;23.808;2023-02-21T05:33:26;95824.09;;;0.77;64.76
24160;BME280;62385;41.594;23.808;2023-02-21T05:35:52;95818.28;;;1.12;63.49
24160;BME280;62385;41.594;23.808;2023-02-21T05:38:19;95831.84;;;0.66;65.21
24160;BME280;62385;41.594;23.808;2023-02-21T05:40:45;95830.19;;;0.90;65.12
24160;BME280;62385;41.594;23.808;2023-02-21T05:43:11;95826.78;;;0.63;65.48
24160;BME280;62385;41.594;23.808;2023-02-21T05:45:37;95835.47;;;0.64;65.61
24160;BME280;62385;41.594;23.808;2023-02-21T05:48:02;95829.03;;;0.95;64.89
24160;BME280;62385;41.594;23.808;2023-02-21T05:50:29;95823.38;;;1.26;63.70
24160;BME280;62385;41.594;23.808;2023-02-21T05:52:55;95830.56;;;1.35;63.62
24160;BME280;62385;41.594;23.808;2023-02-21T05:55:21;95827.97;;;0.97;64.68
24160;BME280;62385;41.594;23.808;2023-02-21T05:57:47;95827.13;;;0.97;64.43
24160;BME280;62385;41.594;23.808;2023-02-21T06:00:18;95820.75;;;1.13;64.09
24160;BME280;62385;41.594;23.808;2023-02-21T06:02:45;95827.03;;;0.98;64.43
24160;BME280;62385;41.594;23.808;2023-02-21T06:05:11;95825.47;;;0.96;64.34
24160;BME280;62385;41.594;23.808;2023-02-21T06:07:37;95834.88;;;0.98;64.98
24160;BME280;62385;41.594;23.808;2023-02-21T06:10:03;95839.69;;;0.91;65.15
24160;BME280;62385;41.594;23.808;2023-02-21T06:12:30;95839.81;;;1.15;64.39
24160;BME280;62385;41.594;23.808;2023-02-21T06:14:55;95836.13;;;1.18;64.34
24160;BME280;62385;41.594;23.808;2023-02-21T06:17:21;95838.53;;;1.21;64.23
24160;BME280;62385;41.594;23.808;2023-02-21T06:19:47;95838.97;;;1.15;64.87
24160;BME280;62385;41.594;23.808;2023-02-21T06:22:13;95842.28;;;1.17;64.57
24160;BME280;62385;41.594;23.808;2023-02-21T06:24:38;95834.03;;;1.10;64.89
24160;BME280;62385;41.594;23.808;2023-02-21T06:27:04;95831.41;;;1.35;64.33
24160;BME280;62385;41.594;23.808;2023-02-21T06:29:30;95831.13;;;1.76;63.37
24160;BME280;62385;41.594;23.808;2023-02-21T06:31:58;95838.16;;;1.63;63.79
24160;BME280;62385;41.594;23.808;2023-02-21T06:34:24;95846.34;;;1.95;62.95
24160;BME280;62385;41.594;23.808;2023-02-21T06:36:52;95823.41;;;2.22;61.97
24160;BME280;62385;41.594;23.808;2023-02-21T06:39:17;95828.31;;;2.27;61.86
24160;BME280;62385;41.594;23.808;2023-02-21T06:41:43;95842.13;;;2.05;62.66
24160;BME280;62385;41.594;23.808;2023-02-21T06:44:09;95840.88;;;2.46;61.75
24160;BME280;62385;41.594;23.808;2023-02-21T06:46:34;95846.25;;;2.90;60.13
24160;BME280;62385;41.594;23.808;2023-02-21T06:49:03;95839.97;;;3.04;59.73
24160;BME280;62385;41.594;23.808;2023-02-21T06:51:36;95826.06;;;3.37;59.13
24160;BME280;62385;41.594;23.808;2023-02-21T06:54:03;95833.69;;;3.62;58.26
24160;BME280;62385;41.594;23.808;2023-02-21T06:56:29;95831.78;;;3.86;58.03
24160;BME280;62385;41.594;23.808;2023-02-21T06:58:56;95829.97;;;3.87;58.34
24160;BME280;62385;41.594;23.808;2023-02-21T07:01:25;95834.31;;;4.19;57.58
24160;BME280;62385;41.594;23.808;2023-02-21T07:03:53;95817.59;;;4.63;56.85
24160;BME280;62385;41.594;23.808;2023-02-21T07:06:18;95823.06;;;4.60;56.08
24160;BME280;62385;41.594;23.808;2023-02-21T07:08:44;95804.97;;;4.46;56.74
24160;BME280;62385;41.594;23.808;2023-02-21T07:11:10;95820.59;;;4.59;56.56
24160;BME280;62385;41.594;23.808;2023-02-21T07:13:36;95813.88;;;4.34;57.24
24160;BME280;62385;41.594;23.808;2023-02-21T07:16:03;95827.91;;;4.76;56.01
24160;BME280;62385;41.594;23.808;2023-02-21T07:18:29;95821.03;;;4.85;56.25
24160;BME280;62385;41.594;23.808;2023-02-21T07:20:55;95818.94;;;4.79;56.67
24160;BME280;62385;41.594;23.808;2023-02-21T07:23:21;95812.13;;;5.18;55.01
24160;BME280;62385;41.594;23.808;2023-02-21T07:25:47;95810.94;;;5.01;56.16
24160;BME280;62385;41.594;23.808;2023-02-21T07:28:13;95819.88;;;4.78;56.04
24160;BME280;62385;41.594;23.808;2023-02-21T07:30:39;95810.91;;;4.59;56.76
24160;BME280;62385;41.594;23.808;2023-02-21T07:33:05;95812.84;;;4.78;56.87
24160;BME280;62385;41.594;23.808;2023-02-21T07:35:31;95808.72;;;5.06;56.08
24160;BME280;62385;41.594;23.808;2023-02-21T07:37:56;95807.50;;;4.89;56.15
24160;BME280;62385;41.594;23.808;2023-02-21T07:40:22;95798.56;;;5.01;55.71
24160;BME280;62385;41.594;23.808;2023-02-21T07:42:47;95803.03;;;5.01;56.39
24160;BME280;62385;41.594;23.808;2023-02-21T07:45:14;95797.31;;;5.17;55.32
24160;BME280;62385;41.594;23.808;2023-02-21T07:47:40;95792.34;;;5.53;54.29
24160;BME280;62385;41.594;23.808;2023-02-21T07:50:09;95782.81;;;5.72;54.23
24160;BME280;62385;41.594;23.808;2023-02-21T07:52:34;95785.06;;;5.67;55.06
24160;BME280;62385;41.594;23.808;2023-02-21T07:55:00;95784.59;;;6.01;54.76
24160;BME280;62385;41.594;23.808;2023-02-21T07:57:26;95782.69;;;6.03;55.04
24160;BME280;62385;41.594;23.808;2023-02-21T07:59:52;95775.25;;;5.78;56.41
24160;BME280;62385;41.594;23.808;2023-02-21T08:02:18;95773.97;;;6.22;54.59
24160;BME280;62385;41.594;23.808;2023-02-21T08:04:43;95777.69;;;6.10;54.64
24160;BME280;62385;41.594;23.808;2023-02-21T08:07:09;95772.16;;;6.42;54.27
24160;BME280;62385;41.594;23.808;2023-02-21T08:09:35;95773.69;;;6.64;53.47
24160;BME280;62385;41.594;23.808;2023-02-21T08:12:01;95756.09;;;6.45;53.62
24160;BME280;62385;41.594;23.808;2023-02-21T08:14:27;95759.53;;;6.17;53.47
24160;BME280;62385;41.594;23.808;2023-02-21T08:16:52;95755.81;;;6.48;53.31
24160;BME280;62385;41.594;23.808;2023-02-21T08:19:18;95755.38;;;6.62;52.65
24160;BME280;62385;41.594;23.808;2023-02-21T08:21:46;95765.63;;;6.46;53.41
24160;BME280;62385;41.594;23.808;2023-02-21T08:24:12;95761.00;;;7.15;50.84
24160;BME280;62385;41.594;23.808;2023-02-21T08:26:38;95757.22;;;7.08;50.93
24160;BME280;62385;41.594;23.808;2023-02-21T08:29:06;95755.19;;;6.92;51.92
24160;BME280;62385;41.594;23.808;2023-02-21T08:31:39;95747.38;;;7.10;51.07
24160;BME280;62385;41.594;23.808;2023-02-21T08:34:06;95740.75;;;7.33;50.67
24160;BME280;62385;41.594;23.808;2023-02-21T08:36:34;95737.63;;;7.57;48.99
24160;BME280;62385;41.594;23.808;2023-02-21T08:39:01;95729.25;;;7.62;48.46
24160;BME280;62385;41.594;23.808;2023-02-21T08:41:46;95727.97;;;7.93;48.13
24160;BME280;62385;41.594;23.808;2023-02-21T08:44:16;95725.53;;;7.82;48.93
24160;BME280;62385;41.594;23.808;2023-02-21T08:46:43;95730.84;;;8.17;48.21
24160;BME280;62385;41.594;23.808;2023-02-21T08:49:09;95719.09;;;7.84;48.05
24160;BME280;62385;41.594;23.808;2023-02-21T08:51:35;95723.09;;;8.33;46.97
24160;BME280;62385;41.594;23.808;2023-02-21T08:54:01;95719.69;;;8.41;47.85
24160;BME280;62385;41.594;23.808;2023-02-21T08:56:28;95715.84;;;8.53;47.82
24160;BME280;62385;41.594;23.808;2023-02-21T08:58:56;95714.31;;;8.15;49.31
24160;BME280;62385;41.594;23.808;2023-02-21T09:01:23;95714.84;;;8.37;49.22
24160;BME280;62385;41.594;23.808;2023-02-21T09:03:49;95709.75;;;8.53;47.88
24160;BME280;62385;41.594;23.808;2023-02-21T09:06:15;95703.59;;;8.52;47.58
24160;BME280;62385;41.594;23.808;2023-02-21T09:08:41;95704.13;;;8.56;48.59
24160;BME280;62385;41.594;23.808;2023-02-21T09:11:07;95700.03;;;8.61;48.61
24160;BME280;62385;41.594;23.808;2023-02-21T09:13:33;95697.91;;;8.91;47.25
24160;BME280;62385;41.594;23.808;2023-02-21T09:16:00;95694.41;;;9.08;47.43
24160;BME280;62385;41.594;23.808;2023-02-21T09:18:27;95689.53;;;8.69;46.86
24160;BME280;62385;41.594;23.808;2023-02-21T09:20:53;95682.78;;;9.01;46.38
24160;BME280;62385;41.594;23.808;2023-02-21T09:23:39;95684.47;;;9.36;46.58
24160;BME280;62385;41.594;23.808;2023-02-21T09:26:05;95687.53;;;9.57;46.00
24160;BME280;62385;41.594;23.808;2023-02-21T09:28:30;95682.88;;;9.51;46.95
24160;BME280;62385;41.594;23.808;2023-02-21T09:30:56;95681.56;;;9.55;46.62
24160;BME280;62385;41.594;23.808;2023-02-21T09:33:22;95661.28;;;9.38;46.84
24160;BME280;62385;41.594;23.808;2023-02-21T09:35:47;95662.13;;;9.96;45.80
24160;BME280;62385;41.594;23.808;2023-02-21T09:38:15;95650.31;;;9.74;46.36
24160;BME280;62385;41.594;23.808;2023-02-21T09:40:59;95649.22;;;9.93;45.63
24160;BME280;62385;41.594;23.808;2023-02-21T09:43:35;95648.28;;;9.60;45.82
24160;BME280;62385;41.594;23.808;2023-02-21T09:48:40;95626.34;;;10.08;44.60
24160;BME280;62385;41.594;23.808;2023-02-21T09:51:08;95626.00;;;9.95;45.73
24160;BME280;62385;41.594;23.808;2023-02-21T09:53:38;95611.41;;;9.99;47.56
24160;BME280;62385;41.594;23.808;2023-02-21T09:56:20;95607.31;;;10.29;45.68
24160;BME280;62385;41.594;23.808;2023-02-21T09:58:49;95603.19;;;10.43;44.50
24160;BME280;62385;41.594;23.808;2023-02-21T10:01:51;95593.53;;;10.66;43.31
24160;BME280;62385;41.594;23.808;2023-02-21T10:12:55;95571.38;;;11.37;43.93
24160;BME280;62385;41.594;23.808;2023-02-21T10:15:36;95564.03;;;11.39;43.75
24160;BME280;62385;41.594;23.808;2023-02-21T10:18:21;95555.34;;;11.53;43.63
24160;BME280;62385;41.594;23.808;2023-02-21T10:20:52;95546.97;;;11.95;42.46
24160;BME280;62385;41.594;23.808;2023-02-21T10:23:37;95546.22;;;12.01;41.71
24160;BME280;62385;41.594;23.808;2023-02-21T10:26:09;95534.91;;;12.07;41.57
24160;BME280;62385;41.594;23.808;2023-02-21T10:28:36;95539.91;;;12.02;41.12
24160;BME280;62385;41.594;23.808;2023-02-21T10:31:07;95533.09;;;12.22;40.73
24160;BME280;62385;41.594;23.808;2023-02-21T10:33:36;95524.91;;;11.86;41.23
24160;BME280;62385;41.594;23.808;2023-02-21T10:36:10;95518.34;;;12.34;40.51
24160;BME280;62385;41.594;23.808;2023-02-21T10:38:36;95499.09;;;12.47;40.38
24160;BME280;62385;41.594;23.808;2023-02-21T10:41:04;95504.25;;;12.48;40.13
24160;BME280;62385;41.594;23.808;2023-02-21T10:43:47;95491.47;;;13.03;39.34
24160;BME280;62385;41.594;23.808;2023-02-21T10:46:27;95482.09;;;13.07;39.01
24160;BME280;62385;41.594;23.808;2023-02-21T10:49:17;95477.78;;;13.20;39.28
24160;BME280;62385;41.594;23.808;2023-02-21T10:51:44;95470.56;;;13.35;37.31
24160;BME280;62385;41.594;23.808;2023-02-21T10:54:21;95460.94;;;13.56;36.80
24160;BME280;62385;41.594;23.808;2023-02-21T10:56:48;95463.59;;;13.34;36.36
24160;BME280;62385;41.594;23.808;2023-02-21T10:59:23;95456.28;;;13.43;35.64
24160;BME280;62385;41.594;23.808;2023-02-21T11:01:51;95446.78;;;13.98;34.97
24160;BME280;62385;41.594;23.808;2023-02-21T11:07:01;95440.63;;;13.55;36.48
24160;BME280;62385;41.594;23.808;2023-02-21T11:14:32;95434.56;;;13.25;37.59
24160;BME280;62385;41.594;23.808;2023-02-21T11:22:37;95408.53;;;13.91;36.10
24160;BME280;62385;41.594;23.808;2023-02-21T11:27:37;95390.00;;;14.38;34.93
24160;BME280;62385;41.594;23.808;2023-02-21T11:30:29;95394.41;;;14.52;34.96
24160;BME280;62385;41.594;23.808;2023-02-21T11:32:57;95391.50;;;14.54;34.48
24160;BME280;62385;41.594;23.808;2023-02-21T11:35:28;95384.28;;;14.89;33.83
24160;BME280;62385;41.594;23.808;2023-02-21T11:38:00;95380.97;;;14.87;34.18
24160;BME280;62385;41.594;23.808;2023-02-21T11:48:18;95360.34;;;15.15;33.97
24160;BME280;62385;41.594;23.808;2023-02-21T11:50:48;95358.00;;;14.92;35.13
24160;BME280;62385;41.594;23.808;2023-02-21T11:53:28;95360.56;;;15.27;35.62
24160;BME280;62385;41.594;23.808;2023-02-21T11:56:10;95363.16;;;14.94;33.37
24160;BME280;62385;41.594;23.808;2023-02-21T12:18:33;95316.06;;;16.37;31.56
24160;BME280;62385;41.594;23.808;2023-02-21T12:28:38;95296.09;;;16.91;30.90
24160;BME280;62385;41.594;23.808;2023-02-21T12:47:09;95269.19;;;17.04;29.57
24160;BME280;62385;41.594;23.808;2023-02-21T12:49:51;95269.22;;;17.60;28.81
24160;BME280;62385;41.594;23.808;2023-02-21T12:52:40;95265.84;;;17.71;28.81
24160;BME280;62385;41.594;23.808;2023-02-21T12:55:20;95251.94;;;17.49;29.39
24160;BME280;62385;41.594;23.808;2023-02-21T12:57:57;95257.69;;;17.53;29.79
24160;BME280;62385;41.594;23.808;2023-02-21T13:00:57;95265.72;;;17.28;30.70
24160;BME280;62385;41.594;23.808;2023-02-21T13:06:15;95252.97;;;17.80;29.33
24160;BME280;62385;41.594;23.808;2023-02-21T13:11:44;95241.66;;;17.96;28.57
24160;BME280;62385;41.594;23.808;2023-02-21T13:14:17;95225.31;;;18.16;28.75
24160;BME280;62385;41.594;23.808;2023-02-21T13:16:45;95225.69;;;18.19;28.90
24160;BME280;62385;41.594;23.808;2023-02-21T13:19:13;95231.31;;;17.75;29.59
24160;BME280;62385;41.594;23.808;2023-02-21T13:24:29;95226.94;;;17.80;29.56
24160;BME280;62385;41.594;23.808;2023-02-21T13:29:42;95222.81;;;17.78;29.79
24160;BME280;62385;41.594;23.808;2023-02-21T13:32:14;95216.25;;;18.10;28.65
24160;BME280;62385;41.594;23.808;2023-02-21T13:34:52;95212.53;;;18.11;29.86
24160;BME280;62385;41.594;23.808;2023-02-21T13:37:21;95215.97;;;18.18;27.85
24160;BME280;62385;41.594;23.808;2023-02-21T13:39:54;95208.94;;;18.35;28.32
24160;BME280;62385;41.594;23.808;2023-02-21T13:42:24;95205.06;;;18.31;28.76
24160;BME280;62385;41.594;23.808;2023-02-21T13:44:54;95200.53;;;18.32;28.67
24160;BME280;62385;41.594;23.808;2023-02-21T13:58:40;95197.31;;;18.41;28.53
24160;BME280;62385;41.594;23.808;2023-02-21T14:03:53;95186.91;;;18.45;28.68
24160;BME280;62385;41.594;23.808;2023-02-21T14:09:04;95188.16;;;18.79;28.06
24160;BME280;62385;41.594;23.808;2023-02-21T14:11:42;95189.47;;;18.88;28.89
24160;BME280;62385;41.594;23.808;2023-02-21T14:14:27;95188.88;;;18.86;27.28
24160;BME280;62385;41.594;23.808;2023-02-21T14:17:01;95188.28;;;18.84;28.21
24160;BME280;62385;41.594;23.808;2023-02-21T14:19:31;95185.44;;;19.20;27.35
24160;BME280;62385;41.594;23.808;2023-02-21T14:22:04;95179.13;;;19.15;27.48
24160;BME280;62385;41.594;23.808;2023-02-21T14:24:41;95185.16;;;18.99;27.09
24160;BME280;62385;41.594;23.808;2023-02-21T14:29:45;95180.63;;;19.11;27.23
24160;BME280;62385;41.594;23.808;2023-02-21T14:32:34;95180.78;;;19.27;27.14
24160;BME280;62385;41.594;23.808;2023-02-21T14:35:19;95181.72;;;19.21;27.87
24160;BME280;62385;41.594;23.808;2023-02-21T15:12:56;95169.09;;;19.33;25.77
24160;BME280;62385;41.594;23.808;2023-02-21T15:15:35;95171.41;;;19.30;25.62
24160;BME280;62385;41.594;23.808;2023-02-21T15:18:05;95170.00;;;19.27;24.86
24160;BME280;62385;41.594;23.808;2023-02-21T15:20:32;95167.97;;;19.53;24.86
24160;BME280;62385;41.594;23.808;2023-02-21T15:23:13;95168.78;;;19.53;24.77
24160;BME280;62385;41.594;23.808;2023-02-21T15:25:42;95165.94;;;19.36;24.89
24160;BME280;62385;41.594;23.808;2023-02-21T15:28:21;95176.91;;;19.23;26.04
24160;BME280;62385;41.594;23.808;2023-02-21T15:31:14;95171.06;;;18.85;27.23
24160;BME280;62385;41.594;23.808;2023-02-21T15:33:42;95173.94;;;18.24;28.14
24160;BME280;62385;41.594;23.808;2023-02-21T15:36:17;95174.19;;;17.43;29.59
24160;BME280;62385;41.594;23.808;2023-02-21T15:39:09;95182.16;;;16.24;31.53
24160;BME280;62385;41.594;23.808;2023-02-21T15:41:40;95180.13;;;15.55;32.71
24160;BME280;62385;41.594;23.808;2023-02-21T15:44:21;95187.53;;;15.27;32.98
24160;BME280;62385;41.594;23.808;2023-02-21T15:47:14;95183.31;;;15.97;31.64
24160;BME280;62385;41.594;23.808;2023-02-21T15:52:49;95182.00;;;16.19;32.48
24160;BME280;62385;41.594;23.808;2023-02-21T16:00:42;95194.63;;;13.87;36.58
24160;BME280;62385;41.594;23.808;2023-02-21T16:03:34;95198.78;;;13.34;38.00
24160;BME280;62385;41.594;23.808;2023-02-21T16:11:18;95202.31;;;12.92;38.48
24160;BME280;62385;41.594;23.808;2023-02-21T16:13:45;95204.44;;;12.54;39.28
24160;BME280;62385;41.594;23.808;2023-02-21T16:16:11;95209.78;;;12.54;39.57
24160;BME280;62385;41.594;23.808;2023-02-21T16:18:36;95206.56;;;12.59;39.14
24160;BME280;62385;41.594;23.808;2023-02-21T16:21:05;95217.19;;;12.23;39.45
24160;BME280;62385;41.594;23.808;2023-02-21T16:23:33;95211.03;;;12.22;40.17
24160;BME280;62385;41.594;23.808;2023-02-21T16:28:42;95222.13;;;11.90;40.48
24160;BME280;62385;41.594;23.808;2023-02-21T16:31:31;95222.78;;;11.77;40.34
24160;BME280;62385;41.594;23.808;2023-02-21T16:33:58;95229.63;;;11.57;40.85
24160;BME280;62385;41.594;23.808;2023-02-21T16:36:26;95231.38;;;11.65;40.34
24160;BME280;62385;41.594;23.808;2023-02-21T16:38:57;95225.06;;;11.80;39.90
24160;BME280;62385;41.594;23.808;2023-02-21T16:41:23;95232.94;;;11.59;40.59
24160;BME280;62385;41.594;23.808;2023-02-21T16:43:49;95237.19;;;11.31;41.23
24160;BME280;62385;41.594;23.808;2023-02-21T16:46:22;95236.03;;;11.33;41.49
24160;BME280;62385;41.594;23.808;2023-02-21T16:48:48;95238.56;;;11.12;41.64
24160;BME280;62385;41.594;23.808;2023-02-21T16:51:14;95248.88;;;11.44;41.05
24160;BME280;62385;41.594;23.808;2023-02-21T16:53:40;95249.78;;;11.37;40.81
24160;BME280;62385;41.594;23.808;2023-02-21T16:56:06;95250.94;;;11.20;41.37